createdAt,value
2023-05-19T00:00:20.925Z,0.00
2023-05-19T00:01:20.965Z,0.00
2023-05-19T00:02:21.088Z,0.00
2023-05-19T00:03:21.067Z,0.00
2023-05-19T00:04:21.031Z,0.00
2023-05-19T00:05:21.076Z,0.00
2023-05-19T00:06:21.170Z,0.00
2023-05-19T00:07:21.109Z,0.00
2023-05-19T00:08:21.133Z,0.00
2023-05-19T00:09:21.182Z,0.00
2023-05-19T00:10:21.196Z,0.00
2023-05-19T00:11:21.215Z,0.00
2023-05-19T00:12:21.250Z,0.00
2023-05-19T00:13:21.265Z,0.00
2023-05-19T00:14:21.288Z,0.00
2023-05-19T00:15:21.317Z,0.00
2023-05-19T00:16:21.464Z,0.00
2023-05-19T00:17:21.367Z,0.00
2023-05-19T00:18:21.397Z,0.00
2023-05-19T00:19:21.515Z,0.00
2023-05-19T00:20:21.444Z,0.00
2023-05-19T00:21:21.498Z,0.00
2023-05-19T00:22:21.493Z,0.00
2023-05-19T00:23:21.523Z,0.00
2023-05-19T00:24:21.547Z,0.00
2023-05-19T00:25:21.600Z,0.00
2023-05-19T00:26:21.601Z,0.00
2023-05-19T00:27:21.631Z,0.00
2023-05-19T00:28:21.651Z,0.00
2023-05-19T00:29:21.677Z,0.00
2023-05-19T00:30:21.726Z,0.00
2023-05-19T00:31:21.787Z,0.00
2023-05-19T00:32:21.835Z,0.00
2023-05-19T00:33:21.780Z,0.00
2023-05-19T00:38:05.312Z,0.00
2023-05-19T00:39:05.350Z,0.00
2023-05-19T00:40:08.190Z,0.00
2023-05-19T00:41:05.426Z,0.00
2023-05-19T00:42:05.418Z,0.00
2023-05-19T00:43:06.458Z,0.00
2023-05-19T00:47:21.542Z,0.00
2023-05-19T00:48:21.500Z,0.00
2023-05-19T00:49:21.512Z,0.00
2023-05-19T00:50:21.538Z,0.00
2023-05-19T00:51:21.562Z,0.00
2023-05-19T00:52:21.603Z,0.00
2023-05-19T00:53:21.616Z,0.00
2023-05-19T00:54:21.676Z,0.00
2023-05-19T00:55:21.665Z,0.00
2023-05-19T00:56:21.730Z,0.00
2023-05-19T00:57:21.723Z,0.00
2023-05-19T00:58:21.742Z,0.00
2023-05-19T00:59:21.768Z,0.00
2023-05-19T01:00:21.805Z,0.00
2023-05-19T01:01:22.061Z,0.00
2023-05-19T01:02:21.965Z,0.00
2023-05-19T01:03:21.942Z,0.00
2023-05-19T01:04:21.901Z,0.00
2023-05-19T01:05:21.921Z,0.00
2023-05-19T01:06:21.951Z,0.00
2023-05-19T01:07:21.981Z,0.00
2023-05-19T01:08:22.007Z,0.00
2023-05-19T01:09:22.029Z,0.00
2023-05-19T01:10:22.053Z,0.00
2023-05-19T01:11:22.079Z,0.00
2023-05-19T01:12:22.135Z,0.00
2023-05-19T01:13:22.136Z,0.00
2023-05-19T01:14:22.154Z,0.00
2023-05-19T01:15:22.190Z,0.00
2023-05-19T01:16:22.235Z,0.00
2023-05-19T01:17:22.230Z,0.00
2023-05-19T01:18:22.259Z,0.00
2023-05-19T01:19:22.321Z,0.00
2023-05-19T01:20:22.312Z,0.00
2023-05-19T01:21:22.352Z,0.00
2023-05-19T01:22:22.365Z,0.00
2023-05-19T01:23:22.389Z,0.00
2023-05-19T01:24:22.415Z,0.00
2023-05-19T01:25:22.438Z,0.00
2023-05-19T01:26:22.465Z,0.00
2023-05-19T01:27:22.491Z,0.00
2023-05-19T01:28:22.537Z,0.00
2023-05-19T01:29:22.543Z,0.00
2023-05-19T01:30:22.564Z,0.00
2023-05-19T01:31:22.656Z,0.00
2023-05-19T01:32:22.660Z,0.00
2023-05-19T01:33:22.645Z,0.00
2023-05-19T01:34:22.679Z,0.00
2023-05-19T01:35:22.701Z,0.00
2023-05-19T01:36:22.752Z,0.00
2023-05-19T01:37:22.761Z,0.00
2023-05-19T01:38:22.796Z,0.00
2023-05-19T01:39:22.803Z,0.00
2023-05-19T01:40:22.832Z,0.00
2023-05-19T01:41:22.857Z,0.00
2023-05-19T01:42:22.878Z,0.00
2023-05-19T01:43:22.900Z,0.00
2023-05-19T01:44:22.954Z,0.00
2023-05-19T01:45:22.965Z,0.00
2023-05-19T01:46:23.079Z,0.00
2023-05-19T01:47:23.009Z,0.00
2023-05-19T01:48:23.041Z,0.00
2023-05-19T01:49:23.063Z,0.00
2023-05-19T01:50:23.114Z,0.00
2023-05-19T01:51:23.109Z,0.00
2023-05-19T01:52:23.137Z,0.00
2023-05-19T01:53:23.162Z,0.00
2023-05-19T01:54:23.189Z,0.00
2023-05-19T01:55:23.226Z,0.00
2023-05-19T01:56:23.237Z,0.00
2023-05-19T01:57:23.264Z,0.00
2023-05-19T01:58:23.289Z,0.00
2023-05-19T01:59:23.316Z,0.00
2023-05-19T02:00:23.370Z,0.00
2023-05-19T02:01:23.385Z,0.00
2023-05-19T02:02:23.392Z,0.00
2023-05-19T02:03:23.415Z,0.00
2023-05-19T02:04:23.467Z,0.00
2023-05-19T02:05:23.468Z,0.00
2023-05-19T02:06:23.495Z,0.00
2023-05-19T02:07:23.525Z,0.00
2023-05-19T02:08:23.567Z,0.00
2023-05-19T02:09:23.568Z,0.00
2023-05-19T02:10:23.604Z,0.00
2023-05-19T02:11:23.638Z,0.00
2023-05-19T02:12:23.647Z,0.00
2023-05-19T02:13:23.676Z,0.00
2023-05-19T02:14:23.698Z,0.00
2023-05-19T02:15:23.725Z,0.00
2023-05-19T02:16:23.819Z,0.00
2023-05-19T02:17:24.002Z,0.00
2023-05-19T02:18:23.796Z,0.00
2023-05-19T02:19:23.985Z,0.00
2023-05-19T02:20:23.854Z,0.00
2023-05-19T02:21:23.873Z,0.00
2023-05-19T02:22:23.894Z,0.00
2023-05-19T02:23:23.923Z,0.00
2023-05-19T02:24:23.947Z,0.00
2023-05-19T02:25:23.971Z,0.00
2023-05-19T02:26:24.006Z,0.00
2023-05-19T02:27:24.021Z,0.00
2023-05-19T02:28:24.050Z,0.00
2023-05-19T02:29:24.099Z,0.00
2023-05-19T02:30:24.099Z,0.00
2023-05-19T02:31:24.184Z,0.00
2023-05-19T02:32:24.176Z,0.00
2023-05-19T02:33:24.182Z,0.00
2023-05-19T02:34:24.202Z,0.00
2023-05-19T02:35:24.219Z,0.00
2023-05-19T02:36:24.253Z,0.00
2023-05-19T02:37:24.276Z,0.00
2023-05-19T02:38:24.308Z,0.00
2023-05-19T02:39:24.357Z,0.00
2023-05-19T02:40:24.356Z,0.00
2023-05-19T02:41:24.375Z,0.00
2023-05-19T02:42:24.417Z,0.00
2023-05-19T02:43:24.426Z,0.00
2023-05-19T02:44:24.455Z,0.00
2023-05-19T02:45:24.486Z,0.00
2023-05-19T02:46:24.568Z,0.00
2023-05-19T02:47:24.580Z,0.00
2023-05-19T02:48:24.705Z,0.00
2023-05-19T02:49:24.581Z,0.00
2023-05-19T02:50:24.605Z,0.00
2023-05-19T02:51:24.633Z,0.00
2023-05-19T02:52:24.696Z,0.00
2023-05-19T02:53:24.698Z,0.00
2023-05-19T02:54:24.720Z,0.00
2023-05-19T02:55:24.756Z,0.00
2023-05-19T02:56:24.774Z,0.00
2023-05-19T02:57:24.939Z,0.00
2023-05-19T02:58:24.811Z,4.00
2023-05-19T02:59:25.739Z,4.00
2023-05-19T03:00:24.858Z,4.00
2023-05-19T03:01:24.891Z,0.00
2023-05-19T03:02:25.013Z,4.00
2023-05-19T03:03:25.001Z,4.00
2023-05-19T03:04:24.989Z,4.00
2023-05-19T03:05:24.992Z,8.00
2023-05-19T03:06:25.010Z,4.00
2023-05-19T03:07:25.072Z,8.00
2023-05-19T03:08:25.073Z,8.00
2023-05-19T03:09:25.088Z,8.00
2023-05-19T03:10:25.120Z,8.00
2023-05-19T03:11:25.136Z,12.00
2023-05-19T03:12:25.166Z,12.00
2023-05-19T03:13:25.191Z,16.00
2023-05-19T03:14:25.231Z,16.00
2023-05-19T03:15:25.238Z,20.00
2023-05-19T03:16:25.319Z,20.00
2023-05-19T03:17:25.351Z,28.00
2023-05-19T03:18:25.345Z,32.00
2023-05-19T03:19:25.375Z,36.00
2023-05-19T03:20:25.388Z,40.00
2023-05-19T03:21:25.394Z,48.00
2023-05-19T03:22:25.418Z,48.00
2023-05-19T03:23:25.440Z,56.00
2023-05-19T03:24:25.472Z,64.00
2023-05-19T03:25:25.500Z,76.00
2023-05-19T03:26:25.526Z,84.00
2023-05-19T03:27:25.545Z,92.00
2023-05-19T03:28:25.572Z,104.00
2023-05-19T03:29:25.595Z,112.00
2023-05-19T03:30:25.622Z,120.00
2023-05-19T03:31:25.644Z,132.00
2023-05-19T03:32:25.786Z,144.00
2023-05-19T03:33:25.759Z,160.00
2023-05-19T03:34:25.723Z,172.00
2023-05-19T03:35:25.749Z,188.00
2023-05-19T03:36:25.792Z,204.00
2023-05-19T03:37:25.897Z,220.00
2023-05-19T03:38:25.826Z,240.00
2023-05-19T03:39:25.848Z,264.00
2023-05-19T03:40:26.894Z,288.00
2023-05-19T03:41:25.948Z,312.00
2023-05-19T03:42:25.925Z,340.00
2023-05-19T03:43:25.951Z,372.00
2023-05-19T03:44:25.979Z,404.00
2023-05-19T03:45:25.997Z,436.00
2023-05-19T03:46:26.086Z,472.00
2023-05-19T03:47:26.069Z,508.00
2023-05-19T03:48:26.075Z,548.00
2023-05-19T03:49:26.103Z,584.00
2023-05-19T03:50:26.129Z,624.00
2023-05-19T03:51:26.149Z,672.00
2023-05-19T03:52:26.251Z,708.00
2023-05-19T03:53:26.207Z,756.00
2023-05-19T03:54:26.225Z,804.00
2023-05-19T03:55:26.253Z,852.00
2023-05-19T03:56:26.282Z,900.00
2023-05-19T03:57:26.306Z,948.00
2023-05-19T03:58:27.741Z,996.00
2023-05-19T03:59:26.361Z,1052.00
2023-05-19T04:00:26.374Z,1104.00
2023-05-19T04:01:26.412Z,1156.00
2023-05-19T04:02:26.562Z,1220.00
2023-05-19T04:03:26.561Z,1276.00
2023-05-19T04:04:26.523Z,1336.00
2023-05-19T04:05:26.497Z,1404.00
2023-05-19T04:06:26.526Z,1468.00
2023-05-19T04:07:26.549Z,1536.00
2023-05-19T04:08:26.621Z,1604.00
2023-05-19T04:09:26.596Z,1672.00
2023-05-19T04:10:26.623Z,1744.00
2023-05-19T04:11:26.652Z,1816.00
2023-05-19T04:12:26.686Z,1888.00
2023-05-19T04:13:26.697Z,1960.00
2023-05-19T04:14:26.723Z,2028.00
2023-05-19T04:15:26.746Z,2104.00
2023-05-19T04:16:26.829Z,2176.00
2023-05-19T04:17:26.874Z,2244.00
2023-05-19T04:18:28.948Z,2316.00
2023-05-19T04:19:26.945Z,2384.00
2023-05-19T04:20:26.880Z,2444.00
2023-05-19T04:21:26.898Z,2508.00
2023-05-19T04:22:26.920Z,2580.00
2023-05-19T04:23:26.960Z,2640.00
2023-05-19T04:24:26.994Z,2704.00
2023-05-19T04:25:26.998Z,2772.00
2023-05-19T04:26:27.022Z,2832.00
2023-05-19T04:27:27.046Z,3000.00
2023-05-19T04:28:27.074Z,3160.00
2023-05-19T04:29:27.098Z,3076.00
2023-05-19T04:30:27.125Z,3132.00
2023-05-19T04:31:27.216Z,3220.00
2023-05-19T04:32:27.217Z,3288.00
2023-05-19T04:33:27.199Z,3348.00
2023-05-19T04:34:27.224Z,3424.00
2023-05-19T04:35:27.260Z,3492.00
2023-05-19T04:36:29.902Z,3544.00
2023-05-19T04:37:27.310Z,3604.00
2023-05-19T04:38:27.325Z,3672.00
2023-05-19T04:39:27.349Z,3740.00
2023-05-19T04:40:27.565Z,4028.00
2023-05-19T04:41:27.399Z,4496.00
2023-05-19T04:42:31.057Z,4340.00
2023-05-19T04:43:27.451Z,4368.00
2023-05-19T04:44:27.484Z,5276.00
2023-05-19T04:45:27.499Z,6140.00
2023-05-19T04:46:27.618Z,5120.00
2023-05-19T04:47:27.564Z,4528.00
2023-05-19T04:48:27.588Z,4440.00
2023-05-19T04:49:27.605Z,4588.00
2023-05-19T04:50:27.630Z,5384.00
2023-05-19T04:51:29.247Z,4740.00
2023-05-19T04:52:27.679Z,4584.00
2023-05-19T04:53:27.704Z,4704.00
2023-05-19T04:54:27.726Z,4744.00
2023-05-19T04:55:27.751Z,4980.00
2023-05-19T04:56:27.809Z,5464.00
2023-05-19T04:57:27.805Z,6504.00
2023-05-19T04:58:27.833Z,5864.00
2023-05-19T04:59:27.860Z,5584.00
2023-05-19T05:00:27.881Z,5276.00
2023-05-19T05:01:27.982Z,5132.00
2023-05-19T05:02:27.975Z,5324.00
2023-05-19T05:03:28.009Z,5244.00
2023-05-19T05:04:27.980Z,5316.00
2023-05-19T05:05:28.011Z,5436.00
2023-05-19T05:06:28.031Z,5624.00
2023-05-19T05:07:29.376Z,5660.00
2023-05-19T05:08:28.079Z,5560.00
2023-05-19T05:09:28.111Z,5616.00
2023-05-19T05:10:28.132Z,5668.00
2023-05-19T05:11:28.161Z,5768.00
2023-05-19T05:12:28.215Z,5808.00
2023-05-19T05:13:28.216Z,5824.00
2023-05-19T05:14:28.236Z,5900.00
2023-05-19T05:15:28.276Z,6204.00
2023-05-19T05:16:28.344Z,6212.00
2023-05-19T05:17:28.334Z,6228.00
2023-05-19T05:18:28.351Z,6188.00
2023-05-19T05:19:28.514Z,6292.00
2023-05-19T05:20:28.394Z,6316.00
2023-05-19T05:21:28.417Z,6304.00
2023-05-19T05:22:28.443Z,6364.00
2023-05-19T05:23:28.472Z,6880.00
2023-05-19T05:24:28.495Z,7788.00
2023-05-19T05:25:28.525Z,8448.00
2023-05-19T05:26:28.565Z,8068.00
2023-05-19T05:27:28.579Z,8748.00
2023-05-19T05:28:28.667Z,10892.00
2023-05-19T05:29:28.630Z,14068.00
2023-05-19T05:30:28.656Z,15124.00
2023-05-19T05:31:28.682Z,9704.00
2023-05-19T05:32:28.821Z,8168.00
2023-05-19T05:33:28.783Z,8340.00
2023-05-19T05:34:28.756Z,8280.00
2023-05-19T05:35:28.807Z,15216.00
2023-05-19T05:36:28.820Z,31200.00
2023-05-19T05:37:28.847Z,37376.00
2023-05-19T05:38:28.866Z,28640.00
2023-05-19T05:39:28.900Z,18336.00
2023-05-19T05:40:28.934Z,25536.00
2023-05-19T05:41:28.950Z,33856.00
2023-05-19T05:42:29.726Z,40768.00
2023-05-19T05:43:29.012Z,28448.00
2023-05-19T05:44:29.059Z,15324.00
2023-05-19T05:45:29.074Z,27744.00
2023-05-19T05:46:29.110Z,54848.00
2023-05-19T05:47:29.131Z,69216.00
2023-05-19T05:48:29.148Z,69376.00
2023-05-19T05:49:29.173Z,66336.00
2023-05-19T05:50:29.197Z,70016.00
2023-05-19T05:51:33.065Z,74336.00
2023-05-19T05:54:09.426Z,71680.00
2023-05-19T05:55:09.426Z,72448.00
2023-05-19T05:56:09.648Z,74336.00
2023-05-19T05:57:09.500Z,72832.00
2023-05-19T05:58:09.513Z,72512.00
2023-05-19T05:59:09.770Z,73504.00
2023-05-19T06:00:10.207Z,74560.00
2023-05-19T06:01:10.829Z,74400.00
2023-05-19T06:02:09.679Z,72096.00
2023-05-19T06:03:10.045Z,71840.00
2023-05-19T06:04:09.715Z,79200.00
2023-05-19T06:05:12.446Z,78464.00
2023-05-19T06:06:09.761Z,75936.00
2023-05-19T06:07:10.130Z,77088.00
2023-05-19T06:08:09.858Z,77088.00
2023-05-19T06:10:09.936Z,76608.00
2023-05-19T06:11:12.544Z,76512.00
2023-05-19T06:14:10.736Z,84000.00
2023-05-19T06:15:10.108Z,84192.00
2023-05-19T06:16:10.282Z,83040.00
2023-05-19T06:17:52.733Z,82720.00
2023-05-19T06:18:52.771Z,82368.00
2023-05-19T06:19:52.748Z,82560.00
2023-05-19T06:20:52.796Z,81664.00
2023-05-19T06:21:52.830Z,83008.00
2023-05-19T06:22:52.850Z,83488.00
2023-05-19T06:24:52.933Z,84320.00
2023-05-19T06:25:52.958Z,85888.00
2023-05-19T06:26:53.221Z,84416.00
2023-05-19T06:27:53.042Z,80864.00
2023-05-19T06:28:56.712Z,80288.00
2023-05-19T06:29:53.105Z,79840.00
2023-05-19T06:32:53.410Z,83808.00
2023-05-19T06:33:53.243Z,87232.00
2023-05-19T06:34:53.289Z,87936.00
2023-05-19T06:35:54.527Z,86464.00
2023-05-19T06:36:53.353Z,85920.00
2023-05-19T06:37:53.383Z,85056.00
2023-05-19T06:38:53.424Z,86272.00
2023-05-19T06:39:53.471Z,83456.00
2023-05-19T06:40:53.510Z,82208.00
2023-05-19T06:41:53.532Z,83456.00
2023-05-19T06:42:53.589Z,84224.00
2023-05-19T06:43:53.609Z,87616.00
2023-05-19T06:44:53.658Z,88800.00
2023-05-19T06:46:53.762Z,82752.00
2023-05-19T06:48:51.378Z,84384.00
2023-05-19T06:49:51.669Z,86240.00
2023-05-19T06:50:51.430Z,89600.00
2023-05-19T06:51:51.475Z,87520.00
2023-05-19T06:53:51.558Z,87424.00
2023-05-19T06:54:51.792Z,85920.00
2023-05-19T06:58:07.959Z,84960.00
2023-05-19T06:59:07.621Z,82624.00
2023-05-19T07:00:07.688Z,84512.00
2023-05-19T07:01:07.731Z,86496.00
2023-05-19T07:02:07.813Z,86592.00
2023-05-19T07:03:09.086Z,83552.00
2023-05-19T07:04:50.408Z,79840.00
2023-05-19T07:08:36.374Z,84960.00
2023-05-19T07:09:36.415Z,87360.00
2023-05-19T07:11:24.031Z,83808.00
2023-05-19T07:12:24.067Z,85664.00
2023-05-19T07:13:25.923Z,83616.00
2023-05-19T07:14:24.147Z,80896.00
2023-05-19T07:15:24.195Z,80736.00
2023-05-19T07:16:24.245Z,83232.00
2023-05-19T07:17:24.313Z,82368.00
2023-05-19T07:18:24.302Z,82016.00
2023-05-19T07:25:00.624Z,86208.00
2023-05-19T07:26:00.580Z,84640.00
2023-05-19T07:27:00.604Z,82944.00
2023-05-19T07:28:00.652Z,79904.00
2023-05-19T07:30:03.298Z,76480.00
2023-05-19T07:31:03.329Z,73824.00
2023-05-19T07:32:03.475Z,78304.00
2023-05-19T07:33:03.444Z,78048.00
2023-05-19T07:34:03.509Z,73760.00
2023-05-19T07:35:03.499Z,76032.00
2023-05-19T07:36:03.547Z,79584.00
2023-05-19T07:37:03.578Z,78656.00
2023-05-19T07:38:03.615Z,75328.00
2023-05-19T07:39:03.880Z,75904.00
2023-05-19T07:40:03.713Z,74912.00
2023-05-19T07:41:03.764Z,72672.00
2023-05-19T07:42:03.772Z,72288.00
2023-05-19T07:43:03.827Z,74560.00
2023-05-19T07:44:03.858Z,78720.00
2023-05-19T07:45:03.894Z,76960.00
2023-05-19T07:46:03.987Z,76064.00
2023-05-19T07:47:03.986Z,75264.00
2023-05-19T07:48:04.042Z,75808.00
2023-05-19T07:49:04.064Z,76096.00
2023-05-19T07:50:04.113Z,70944.00
2023-05-19T07:51:04.147Z,65504.00
2023-05-19T07:52:04.181Z,72256.00
2023-05-19T07:53:04.222Z,78560.00
2023-05-19T07:55:04.301Z,77888.00
2023-05-19T07:56:04.363Z,73920.00
2023-05-19T07:57:04.398Z,74912.00
2023-05-19T07:58:04.426Z,71328.00
2023-05-19T07:59:04.481Z,71104.00
2023-05-19T08:00:04.515Z,77088.00
2023-05-19T08:01:04.560Z,79008.00
2023-05-19T08:02:04.630Z,77952.00
2023-05-19T08:09:24.000Z,75616.00
2023-05-19T08:10:24.093Z,72832.00
2023-05-19T08:11:24.107Z,72928.00
2023-05-19T08:12:24.127Z,72544.00
2023-05-19T08:13:24.163Z,73888.00
2023-05-19T08:14:24.207Z,71424.00
2023-05-19T08:15:24.251Z,68896.00
2023-05-19T08:16:24.334Z,70560.00
2023-05-19T08:17:24.347Z,73632.00
2023-05-19T08:18:24.373Z,72864.00
2023-05-19T08:19:24.425Z,70176.00
2023-05-19T08:20:24.529Z,70208.00
2023-05-19T08:21:24.492Z,68928.00
2023-05-19T08:22:24.534Z,69504.00
2023-05-19T08:23:24.572Z,60160.00
2023-05-19T08:24:24.617Z,50720.00
2023-05-19T08:25:24.656Z,62240.00
2023-05-19T08:27:07.277Z,68640.00
2023-05-19T08:28:07.298Z,64448.00
2023-05-19T08:29:07.337Z,62848.00
2023-05-19T08:30:07.390Z,68192.00
2023-05-19T08:31:07.439Z,67936.00
2023-05-19T08:32:07.462Z,63456.00
2023-05-19T08:34:00.111Z,64736.00
2023-05-19T08:35:00.176Z,66592.00
2023-05-19T08:36:00.179Z,65280.00
2023-05-19T08:37:00.214Z,67968.00
2023-05-19T08:38:00.252Z,67232.00
2023-05-19T08:39:00.294Z,66432.00
2023-05-19T08:40:00.341Z,65280.00
2023-05-19T08:41:00.394Z,62816.00
2023-05-19T08:42:00.415Z,60544.00
2023-05-19T08:43:00.491Z,61216.00
2023-05-19T08:44:00.498Z,60928.00
2023-05-19T08:45:00.540Z,61792.00
2023-05-19T09:25:03.724Z,13236.00
2023-05-19T09:26:03.704Z,20992.00
2023-05-19T09:27:46.305Z,13144.00
2023-05-19T09:28:46.351Z,11852.00
2023-05-19T09:29:46.378Z,12756.00
2023-05-19T09:30:46.422Z,15368.00
2023-05-19T09:31:46.490Z,19488.00
2023-05-19T09:32:52.787Z,19232.00
2023-05-19T09:33:46.530Z,19200.00
2023-05-19T09:34:46.568Z,13952.00
2023-05-19T09:35:46.618Z,10688.00
2023-05-19T09:36:46.642Z,11784.00
2023-05-19T09:37:46.700Z,16672.00
2023-05-19T09:38:46.719Z,10892.00
2023-05-19T09:39:46.750Z,10948.00
2023-05-19T09:41:31.990Z,12064.00
2023-05-19T09:42:29.595Z,11932.00
2023-05-19T09:43:29.421Z,20768.00
2023-05-19T09:45:29.491Z,10624.00
2023-05-19T09:50:30.894Z,10688.00
2023-05-19T09:51:29.703Z,9152.00
2023-05-19T09:52:29.751Z,8988.00
2023-05-19T09:53:29.770Z,10628.00
2023-05-19T09:56:22.443Z,10188.00
2023-05-19T09:57:23.053Z,20832.00
2023-05-19T09:58:22.492Z,12176.00
2023-05-19T09:59:22.524Z,10776.00
2023-05-19T10:00:22.756Z,10108.00
2023-05-19T10:01:22.905Z,10348.00
2023-05-19T10:03:23.277Z,10700.00
2023-05-19T10:04:25.575Z,8672.00
2023-05-19T10:05:23.067Z,8576.00
2023-05-19T10:06:22.784Z,8136.00
2023-05-19T10:07:22.790Z,8280.00
2023-05-19T10:08:22.839Z,7964.00
2023-05-19T10:09:22.859Z,7816.00
2023-05-19T10:10:22.896Z,8040.00
2023-05-19T10:11:23.733Z,7848.00
2023-05-19T10:12:22.959Z,7544.00
2023-05-19T10:13:25.831Z,7476.00
2023-05-19T10:15:16.205Z,7888.00
2023-05-19T10:16:15.649Z,13844.00
2023-05-19T10:17:16.676Z,13692.00
2023-05-19T10:18:15.698Z,13256.00
2023-05-19T10:19:15.760Z,13532.00
2023-05-19T10:20:15.820Z,13512.00
2023-05-19T10:21:15.795Z,13240.00
2023-05-19T10:22:15.841Z,13236.00
2023-05-19T10:23:15.871Z,12828.00
2023-05-19T10:25:15.948Z,12236.00
2023-05-19T10:29:16.303Z,12072.00
2023-05-19T10:31:16.134Z,12208.00
2023-05-19T10:32:16.157Z,12092.00
2023-05-19T10:33:16.294Z,12196.00
2023-05-19T10:34:16.250Z,12460.00
2023-05-19T10:35:16.274Z,12484.00
2023-05-19T10:36:16.327Z,12580.00
2023-05-19T10:37:16.339Z,12768.00
2023-05-19T10:38:16.403Z,12888.00
2023-05-19T10:39:16.407Z,13068.00
2023-05-19T10:40:16.455Z,13208.00
2023-05-19T10:41:16.681Z,13584.00
2023-05-19T10:42:16.520Z,13608.00
2023-05-19T10:43:16.533Z,13324.00
2023-05-19T10:44:17.106Z,13036.00
2023-05-19T10:45:17.315Z,12976.00
2023-05-19T10:47:17.156Z,12976.00
2023-05-19T10:48:17.053Z,13040.00
2023-05-19T10:52:16.858Z,11168.00
2023-05-19T10:53:16.902Z,11296.00
2023-05-19T10:59:17.614Z,10992.00
2023-05-19T11:01:17.283Z,11484.00
2023-05-19T11:02:17.956Z,11264.00
2023-05-19T11:03:17.889Z,11056.00
2023-05-19T11:05:17.521Z,8276.00
2023-05-19T11:10:17.466Z,7184.00
2023-05-19T11:11:17.730Z,8596.00
2023-05-19T11:12:17.741Z,7280.00
2023-05-19T11:13:17.600Z,7688.00
2023-05-19T11:14:17.930Z,8484.00
2023-05-19T11:15:18.062Z,7784.00
2023-05-19T11:16:17.700Z,8236.00
2023-05-19T11:17:17.745Z,8356.00
2023-05-19T11:18:17.738Z,8624.00
2023-05-19T11:19:17.814Z,8828.00
2023-05-19T11:20:17.802Z,9068.00
2023-05-19T11:21:17.877Z,9164.00
2023-05-19T11:22:17.875Z,9264.00
2023-05-19T11:23:18.029Z,9152.00
2023-05-19T11:24:17.933Z,8868.00
2023-05-19T11:25:17.970Z,8468.00
2023-05-19T11:26:18.004Z,8336.00
2023-05-19T11:27:18.037Z,8324.00
2023-05-19T11:29:18.100Z,8196.00
2023-05-19T11:30:18.135Z,8228.00
2023-05-19T11:31:18.164Z,8032.00
2023-05-19T11:32:18.460Z,7936.00
2023-05-19T11:33:18.569Z,7804.00
2023-05-19T11:34:18.280Z,7444.00
2023-05-19T11:35:18.337Z,6952.00
2023-05-19T11:37:18.374Z,6376.00
2023-05-19T11:38:18.419Z,6348.00
2023-05-19T11:39:18.432Z,6500.00
2023-05-19T11:40:18.663Z,6572.00
2023-05-19T11:41:20.672Z,6716.00
2023-05-19T11:42:21.173Z,6688.00
2023-05-19T11:43:18.566Z,6552.00
2023-05-19T11:44:22.638Z,6312.00
2023-05-19T11:45:18.629Z,6204.00
2023-05-19T11:46:18.702Z,6152.00
2023-05-19T11:47:19.013Z,6148.00
2023-05-19T11:48:18.795Z,6212.00
2023-05-19T11:49:18.783Z,6308.00
2023-05-19T11:50:18.795Z,6352.00
2023-05-19T11:51:18.826Z,6492.00
2023-05-19T11:52:18.853Z,6364.00
2023-05-19T11:53:18.900Z,6848.00
2023-05-19T11:54:18.921Z,7320.00
2023-05-19T11:55:18.955Z,7756.00
2023-05-19T11:56:18.986Z,7928.00
2023-05-19T11:57:21.640Z,7868.00
2023-05-19T11:58:19.782Z,7732.00
2023-05-19T11:59:19.095Z,7552.00
2023-05-19T12:00:19.117Z,7252.00
2023-05-19T12:01:19.144Z,7068.00
2023-05-19T12:02:19.203Z,7064.00
2023-05-19T12:03:19.341Z,6048.00
2023-05-19T12:04:19.241Z,6512.00
2023-05-19T12:05:19.599Z,6364.00
2023-05-19T12:06:19.327Z,6188.00
2023-05-19T12:07:19.341Z,6088.00
2023-05-19T12:08:19.380Z,5856.00
2023-05-19T12:09:19.409Z,4296.00
2023-05-19T12:10:19.432Z,4328.00
2023-05-19T12:11:20.109Z,4368.00
2023-05-19T12:12:19.503Z,4456.00
2023-05-19T12:13:19.535Z,5792.00
2023-05-19T12:14:19.576Z,5732.00
2023-05-19T12:15:19.607Z,5672.00
2023-05-19T12:17:19.657Z,5888.00
2023-05-19T12:19:20.982Z,6292.00
2023-05-19T12:20:19.752Z,6484.00
2023-05-19T12:21:19.818Z,6728.00
2023-05-19T12:22:19.830Z,7032.00
2023-05-19T12:23:19.851Z,7208.00
2023-05-19T12:24:19.878Z,7532.00
2023-05-19T12:25:21.326Z,7676.00
2023-05-19T12:26:19.942Z,7632.00
2023-05-19T12:27:19.986Z,7536.00
2023-05-19T12:28:20.003Z,7316.00
2023-05-19T12:29:20.045Z,7176.00
2023-05-19T12:30:20.072Z,7320.00
2023-05-19T12:31:20.169Z,7332.00
2023-05-19T12:32:20.144Z,7180.00
2023-05-19T12:33:20.169Z,6644.00
2023-05-19T12:34:20.200Z,7224.00
2023-05-19T12:35:20.236Z,7088.00
2023-05-19T12:36:20.333Z,6632.00
2023-05-19T12:37:20.314Z,6284.00
2023-05-19T12:38:20.330Z,4844.00
2023-05-19T12:39:21.493Z,4664.00
2023-05-19T12:40:20.395Z,6008.00
2023-05-19T12:41:20.436Z,5188.00
2023-05-19T12:42:20.463Z,4668.00
2023-05-19T12:43:20.502Z,5856.00
2023-05-19T12:44:20.522Z,5888.00
2023-05-19T12:45:20.551Z,5176.00
2023-05-19T12:46:20.641Z,5048.00
2023-05-19T12:47:20.620Z,5604.00
2023-05-19T12:48:20.676Z,5580.00
2023-05-19T12:49:20.711Z,5652.00
2023-05-19T12:50:20.714Z,5772.00
2023-05-19T12:51:20.746Z,5944.00
2023-05-19T12:52:20.778Z,5996.00
2023-05-19T12:53:20.840Z,5984.00
2023-05-19T12:54:20.888Z,6056.00
2023-05-19T12:55:20.896Z,6264.00
2023-05-19T12:56:20.906Z,6480.00
2023-05-19T12:57:20.942Z,6656.00
2023-05-19T12:58:20.976Z,6788.00
2023-05-19T12:59:30.603Z,6864.00
2023-05-19T13:00:21.154Z,6944.00
2023-05-19T13:01:21.121Z,6984.00
2023-05-19T13:02:21.175Z,6880.00
2023-05-19T13:03:21.337Z,6716.00
2023-05-19T13:04:21.169Z,6576.00
2023-05-19T13:05:21.193Z,6436.00
2023-05-19T13:06:21.224Z,6380.00
2023-05-19T13:07:21.269Z,6380.00
2023-05-19T13:08:21.299Z,6452.00
2023-05-19T13:09:21.354Z,6556.00
2023-05-19T13:10:21.376Z,6524.00
2023-05-19T13:11:21.386Z,6556.00
2023-05-19T13:12:21.430Z,6476.00
2023-05-19T13:13:21.449Z,6428.00
2023-05-19T13:14:21.485Z,6300.00
2023-05-19T13:15:21.512Z,6216.00
2023-05-19T13:16:21.574Z,6148.00
2023-05-19T13:17:21.589Z,5996.00
2023-05-19T13:18:21.631Z,5908.00
2023-05-19T13:19:25.771Z,5736.00
2023-05-19T13:20:21.724Z,4504.00
2023-05-19T13:21:21.926Z,5620.00
2023-05-19T13:22:21.755Z,5552.00
2023-05-19T13:23:21.767Z,5500.00
2023-05-19T13:24:21.827Z,5412.00
2023-05-19T13:25:22.168Z,5416.00
2023-05-19T13:26:22.082Z,5408.00
2023-05-19T13:27:21.894Z,5380.00
2023-05-19T13:28:21.928Z,5348.00
2023-05-19T13:29:21.966Z,5292.00
2023-05-19T13:30:22.006Z,5432.00
2023-05-19T13:31:22.297Z,5640.00
2023-05-19T13:32:22.068Z,5772.00
2023-05-19T13:33:22.083Z,5916.00
2023-05-19T13:35:22.163Z,5856.00
2023-05-19T13:36:22.178Z,5548.00
2023-05-19T13:37:22.307Z,5840.00
2023-05-19T13:39:22.275Z,4740.00
2023-05-19T13:40:22.304Z,4636.00
2023-05-19T13:41:22.369Z,4616.00
2023-05-19T13:42:22.367Z,4584.00
2023-05-19T13:43:22.398Z,4504.00
2023-05-19T13:44:22.431Z,4476.00
2023-05-19T13:45:22.466Z,4388.00
2023-05-19T13:46:32.745Z,4336.00
2023-05-19T13:47:22.669Z,4368.00
2023-05-19T13:48:22.820Z,5708.00
2023-05-19T13:50:22.632Z,5484.00
2023-05-19T13:51:22.796Z,5368.00
2023-05-19T13:52:22.680Z,4304.00
2023-05-19T13:53:22.708Z,4276.00
2023-05-19T13:54:22.789Z,4348.00
2023-05-19T13:55:22.784Z,4804.00
2023-05-19T13:56:22.801Z,5612.00
2023-05-19T13:57:22.863Z,5780.00
2023-05-19T13:58:22.882Z,5760.00
2023-05-19T13:59:22.904Z,5132.00
2023-05-19T14:00:22.941Z,5484.00
2023-05-19T14:01:22.999Z,5256.00
2023-05-19T14:02:23.063Z,5288.00
2023-05-19T14:03:23.054Z,5072.00
2023-05-19T14:04:23.079Z,5180.00
2023-05-19T14:05:23.091Z,5276.00
2023-05-19T14:06:23.126Z,5452.00
2023-05-19T14:07:23.150Z,5564.00
2023-05-19T14:08:23.189Z,5588.00
2023-05-19T14:09:23.237Z,5788.00
2023-05-19T14:11:23.495Z,6544.00
2023-05-19T14:12:30.584Z,6996.00
2023-05-19T14:13:30.982Z,7404.00
2023-05-19T14:14:23.400Z,7672.00
2023-05-19T14:15:24.041Z,7668.00